Hunter River, Canada
Current Conditions -  °F | °C
As of 12:00 PM on Friday 19 Dec 2014 (Local Time) from CYYG Reporting Station
Snow Showers Snow Showers  
Wind Chill: 21°   Ceiling: 800
Heat Index: 32°   Visibility: 1.5mi
Dew Point: 30°   Wind: 17mph
Humidity: 93%   Direction: 330°NNW
Pressure: 29.65"   Gusts: 29mph
Location:  46.35°N, 63.35°W
Report Text: CYYG 191600Z 33015G25KT 1 1/2SM -SHSN BKN008 OVC019 M00/M01 A2965 RMK SN2SF4SC2 SLP044
Loading
Personal Weather Stations






























Interactive Weather Map New forecast layout! Learn more

10-Day Weather Forecast

Advertisements
Track Severe Weather on mobile